BAW249A SBGL-SAEZ
Flight info
| Callsign | BAW249A |
|---|---|
| Flight time | 2h 44m |
| Altitude | 38000 |
| Route | BITAK UN857 UTMUD/N0483F400 UN857 NELOX UM534 DADUT UN741 PAPIX |
| Aircraft | B77W/H-SDE1E2E3FGHIJ2J3J4J5M1RWXY/LB1D1 |
Departure
| Time | 2026-05-06 08:09 |
|---|---|
| Airport | Rio Galeão – Tom Jobim International Airport (SBGL) |
Arrival
| Time | 2026-05-06 10:53 |
|---|---|
| Airport | Ezeiza International Airport - Ministro Pistarini (SAEZ) |
| Time | Latitude | Longitude | Altitude | Speed | Heading |
|---|---|---|---|---|---|
| 2026-05-06 08:01 | -22.81461 | -43.24842 | 23 ft | 0 kts | 72° |
| 2026-05-06 08:02 | -22.81466 | -43.24857 | 24 ft | 0 kts | 72° |
| 2026-05-06 08:02 | -22.81470 | -43.24871 | 24 ft | 0 kts | 72° |
| 2026-05-06 08:02 | -22.81475 | -43.24885 | 22 ft | 0 kts | 53° |
| 2026-05-06 08:02 | -22.81487 | -43.24891 | 25 ft | 0 kts | 355° |
| 2026-05-06 08:03 | -22.81493 | -43.24889 | 20 ft | 0 kts | 342° |
| 2026-05-06 08:04 | -22.81490 | -43.24891 | 22 ft | 4 kts | 338° |
| 2026-05-06 08:04 | -22.81451 | -43.24970 | 26 ft | 14 kts | 288° |
| 2026-05-06 08:04 | -22.81414 | -43.25069 | 26 ft | 14 kts | 300° |
| 2026-05-06 08:04 | -22.81356 | -43.25157 | 26 ft | 14 kts | 307° |
| 2026-05-06 08:05 | -22.81295 | -43.25243 | 26 ft | 14 kts | 307° |
| 2026-05-06 08:05 | -22.81227 | -43.25322 | 26 ft | 14 kts | 323° |
| 2026-05-06 08:05 | -22.81137 | -43.25369 | 26 ft | 14 kts | 343° |
| 2026-05-06 08:05 | -22.81038 | -43.25382 | 26 ft | 14 kts | 0° |
| 2026-05-06 08:06 | -22.80954 | -43.25427 | 28 ft | 14 kts | 306° |
| 2026-05-06 08:06 | -22.80907 | -43.25522 | 32 ft | 15 kts | 294° |
| 2026-05-06 08:06 | -22.80855 | -43.25631 | 28 ft | 18 kts | 303° |
| 2026-05-06 08:06 | -22.80745 | -43.25660 | 30 ft | 19 kts | 27° |
| 2026-05-06 08:07 | -22.80634 | -43.25581 | 30 ft | 19 kts | 35° |
| 2026-05-06 08:07 | -22.80518 | -43.25548 | 35 ft | 18 kts | 339° |
| 2026-05-06 08:07 | -22.80405 | -43.25603 | 34 ft | 18 kts | 360° |
| 2026-05-06 08:07 | -22.80293 | -43.25546 | 30 ft | 18 kts | 34° |
| 2026-05-06 08:08 | -22.80201 | -43.25473 | 30 ft | 12 kts | 39° |
| 2026-05-06 08:08 | -22.80160 | -43.25397 | 30 ft | 12 kts | 73° |
| 2026-05-06 08:08 | -22.80078 | -43.25083 | 32 ft | 95 kts | 74° |
| 2026-05-06 08:08 | -22.79796 | -43.24007 | 59 ft | 201 kts | 74° |
| 2026-05-06 08:09 | -22.79378 | -43.22403 | 1102 ft | 226 kts | 75° |
| 2026-05-06 08:09 | -22.79027 | -43.20726 | 2625 ft | 233 kts | 84° |
| 2026-05-06 08:09 | -22.79340 | -43.18985 | 3308 ft | 246 kts | 121° |
| 2026-05-06 08:09 | -22.80632 | -43.17748 | 4033 ft | 258 kts | 158° |
| 2026-05-06 08:10 | -22.82419 | -43.17489 | 4892 ft | 266 kts | 190° |
| 2026-05-06 08:10 | -22.84148 | -43.18207 | 5778 ft | 270 kts | 205° |
| 2026-05-06 08:10 | -22.85840 | -43.19163 | 6651 ft | 277 kts | 206° |
| 2026-05-06 08:10 | -22.87550 | -43.20161 | 7568 ft | 281 kts | 207° |
| 2026-05-06 08:11 | -22.89278 | -43.21177 | 8504 ft | 284 kts | 207° |
| 2026-05-06 08:11 | -22.91035 | -43.22209 | 9425 ft | 289 kts | 207° |
| 2026-05-06 08:11 | -22.92796 | -43.23238 | 10329 ft | 293 kts | 207° |
| 2026-05-06 08:11 | -22.94639 | -43.24310 | 10900 ft | 311 kts | 207° |
| 2026-05-06 08:12 | -22.96639 | -43.25466 | 11120 ft | 339 kts | 207° |
| 2026-05-06 08:12 | -22.98820 | -43.26726 | 11327 ft | 368 kts | 207° |
| 2026-05-06 08:12 | -23.01127 | -43.28056 | 11932 ft | 381 kts | 207° |
| 2026-05-06 08:12 | -23.03493 | -43.29419 | 12720 ft | 389 kts | 207° |
| 2026-05-06 08:13 | -23.05900 | -43.30804 | 13607 ft | 394 kts | 207° |
| 2026-05-06 08:13 | -23.08307 | -43.32189 | 14415 ft | 398 kts | 207° |
| 2026-05-06 08:13 | -23.10776 | -43.33611 | 15193 ft | 403 kts | 207° |
| 2026-05-06 08:13 | -23.13270 | -43.35047 | 15984 ft | 407 kts | 207° |
| 2026-05-06 08:14 | -23.15783 | -43.36495 | 16750 ft | 411 kts | 208° |
| 2026-05-06 08:14 | -23.18326 | -43.37960 | 17484 ft | 416 kts | 208° |
| 2026-05-06 08:14 | -23.20895 | -43.39440 | 18284 ft | 419 kts | 208° |
| 2026-05-06 08:14 | -23.23496 | -43.40941 | 18913 ft | 424 kts | 208° |
| 2026-05-06 08:15 | -23.26084 | -43.42434 | 19621 ft | 426 kts | 208° |
| 2026-05-06 08:15 | -23.28708 | -43.43948 | 20347 ft | 428 kts | 208° |
| 2026-05-06 08:15 | -23.31345 | -43.45470 | 21029 ft | 431 kts | 208° |
| 2026-05-06 08:15 | -23.34008 | -43.47008 | 21703 ft | 435 kts | 208° |
| 2026-05-06 08:16 | -23.36696 | -43.48561 | 22395 ft | 437 kts | 208° |
| 2026-05-06 08:16 | -23.39394 | -43.50121 | 23074 ft | 440 kts | 208° |
| 2026-05-06 08:16 | -23.42114 | -43.51694 | 23726 ft | 444 kts | 208° |
| 2026-05-06 08:16 | -23.44823 | -43.53261 | 24268 ft | 446 kts | 208° |
| 2026-05-06 08:17 | -23.47574 | -43.54854 | 24894 ft | 447 kts | 208° |
| 2026-05-06 08:17 | -23.50323 | -43.56446 | 25543 ft | 447 kts | 208° |
| 2026-05-06 08:17 | -23.53081 | -43.58044 | 26176 ft | 448 kts | 208° |
| 2026-05-06 08:17 | -23.55834 | -43.59641 | 26770 ft | 450 kts | 208° |
| 2026-05-06 08:18 | -23.58603 | -43.61247 | 27343 ft | 451 kts | 208° |
| 2026-05-06 08:18 | -23.61317 | -43.62974 | 27895 ft | 453 kts | 214° |
| 2026-05-06 08:18 | -23.63852 | -43.64954 | 28428 ft | 454 kts | 218° |
| 2026-05-06 08:18 | -23.66268 | -43.67194 | 28946 ft | 456 kts | 223° |
| 2026-05-06 08:19 | -23.68533 | -43.69615 | 29412 ft | 457 kts | 224° |
| 2026-05-06 08:19 | -23.70800 | -43.72077 | 29875 ft | 459 kts | 224° |
| 2026-05-06 08:19 | -23.73066 | -43.74544 | 30304 ft | 461 kts | 224° |
| 2026-05-06 08:19 | -23.75336 | -43.77008 | 30751 ft | 459 kts | 224° |
| 2026-05-06 08:20 | -23.77598 | -43.79453 | 31277 ft | 456 kts | 224° |
| 2026-05-06 08:20 | -23.79849 | -43.81879 | 31815 ft | 453 kts | 224° |
| 2026-05-06 08:20 | -23.82087 | -43.84287 | 32335 ft | 451 kts | 224° |
| 2026-05-06 08:20 | -23.84317 | -43.86685 | 32804 ft | 448 kts | 224° |
| 2026-05-06 08:21 | -23.86533 | -43.89070 | 33267 ft | 446 kts | 224° |
| 2026-05-06 08:21 | -23.88739 | -43.91444 | 33747 ft | 444 kts | 224° |
| 2026-05-06 08:21 | -23.90932 | -43.93808 | 34228 ft | 442 kts | 224° |
| 2026-05-06 08:21 | -23.93117 | -43.96164 | 34591 ft | 440 kts | 224° |
| 2026-05-06 08:22 | -23.95292 | -43.98510 | 34936 ft | 439 kts | 224° |
| 2026-05-06 08:22 | -23.97460 | -44.00851 | 35274 ft | 437 kts | 224° |
| 2026-05-06 08:22 | -23.99596 | -44.03156 | 35622 ft | 436 kts | 224° |
| 2026-05-06 08:22 | -24.01752 | -44.05485 | 35976 ft | 434 kts | 224° |
| 2026-05-06 08:23 | -24.03900 | -44.07807 | 36291 ft | 433 kts | 224° |
| 2026-05-06 08:23 | -24.06041 | -44.10123 | 36617 ft | 432 kts | 224° |
| 2026-05-06 08:23 | -24.08172 | -44.12430 | 36931 ft | 430 kts | 224° |
| 2026-05-06 08:23 | -24.10309 | -44.14744 | 37069 ft | 433 kts | 224° |
| 2026-05-06 08:24 | -24.14596 | -44.19391 | 37143 ft | 430 kts | 224° |
| 2026-05-06 08:24 | -24.18785 | -44.23938 | 37140 ft | 423 kts | 224° |
| 2026-05-06 08:25 | -24.22963 | -44.28476 | 37146 ft | 422 kts | 224° |
| 2026-05-06 08:25 | -24.27140 | -44.33017 | 37143 ft | 423 kts | 224° |
| 2026-05-06 08:26 | -24.31319 | -44.37565 | 37148 ft | 423 kts | 224° |
| 2026-05-06 08:26 | -24.35477 | -44.42095 | 37145 ft | 424 kts | 224° |
| 2026-05-06 08:27 | -24.39671 | -44.46669 | 37146 ft | 425 kts | 224° |
| 2026-05-06 08:27 | -24.43874 | -44.51258 | 37143 ft | 425 kts | 224° |
| 2026-05-06 08:28 | -24.48052 | -44.55823 | 37142 ft | 426 kts | 224° |
| 2026-05-06 08:28 | -24.52242 | -44.60439 | 37143 ft | 426 kts | 225° |
| 2026-05-06 08:29 | -24.56379 | -44.65064 | 37142 ft | 426 kts | 225° |
| 2026-05-06 08:29 | -24.60539 | -44.69726 | 37145 ft | 426 kts | 225° |
| 2026-05-06 08:30 | -24.64700 | -44.74385 | 37146 ft | 426 kts | 225° |
| 2026-05-06 08:30 | -24.68829 | -44.79010 | 37145 ft | 425 kts | 225° |
| 2026-05-06 08:31 | -24.72975 | -44.83658 | 37145 ft | 425 kts | 225° |
| 2026-05-06 08:31 | -24.77120 | -44.88308 | 37142 ft | 425 kts | 225° |
| 2026-05-06 08:32 | -24.81257 | -44.92956 | 37140 ft | 425 kts | 225° |
| 2026-05-06 08:32 | -24.84692 | -44.96818 | 37143 ft | 425 kts | 225° |
| 2026-05-06 08:33 | -24.89495 | -45.02223 | 37143 ft | 425 kts | 225° |
| 2026-05-06 08:33 | -24.92959 | -45.06125 | 37140 ft | 425 kts | 225° |
| 2026-05-06 08:34 | -24.99127 | -45.13083 | 37140 ft | 425 kts | 225° |
| 2026-05-06 08:35 | -25.03262 | -45.17754 | 37143 ft | 425 kts | 225° |
| 2026-05-06 08:35 | -25.07403 | -45.22435 | 37144 ft | 426 kts | 225° |
| 2026-05-06 08:36 | -25.11546 | -45.27124 | 37141 ft | 426 kts | 225° |
| 2026-05-06 08:36 | -25.15664 | -45.31789 | 37142 ft | 426 kts | 225° |
| 2026-05-06 08:37 | -25.19802 | -45.36482 | 37141 ft | 427 kts | 225° |
| 2026-05-06 08:37 | -25.23952 | -45.41193 | 37144 ft | 427 kts | 225° |
| 2026-05-06 08:38 | -25.28073 | -45.45877 | 37140 ft | 427 kts | 225° |
| 2026-05-06 08:38 | -25.32213 | -45.50586 | 37142 ft | 427 kts | 225° |
| 2026-05-06 08:39 | -25.36361 | -45.55310 | 37141 ft | 427 kts | 226° |
| 2026-05-06 08:39 | -25.40505 | -45.60035 | 37142 ft | 427 kts | 226° |
| 2026-05-06 08:40 | -25.44653 | -45.64768 | 37140 ft | 427 kts | 226° |
| 2026-05-06 08:40 | -25.48763 | -45.69464 | 37141 ft | 427 kts | 226° |
| 2026-05-06 08:41 | -25.52908 | -45.74205 | 37139 ft | 427 kts | 226° |
| 2026-05-06 08:41 | -25.57042 | -45.78938 | 37127 ft | 427 kts | 226° |
| 2026-05-06 08:42 | -25.61173 | -45.83673 | 37143 ft | 427 kts | 226° |
| 2026-05-06 08:42 | -25.65303 | -45.88411 | 37149 ft | 427 kts | 226° |
| 2026-05-06 08:43 | -25.69432 | -45.93153 | 37150 ft | 427 kts | 226° |
| 2026-05-06 08:43 | -25.73562 | -45.97900 | 37148 ft | 428 kts | 226° |
| 2026-05-06 08:44 | -25.77692 | -46.02654 | 37128 ft | 428 kts | 226° |
| 2026-05-06 08:44 | -25.81821 | -46.07412 | 37145 ft | 428 kts | 226° |
| 2026-05-06 08:45 | -25.85927 | -46.12149 | 37147 ft | 428 kts | 226° |
| 2026-05-06 08:45 | -25.90061 | -46.16924 | 37151 ft | 428 kts | 226° |
| 2026-05-06 08:46 | -25.94194 | -46.21703 | 37147 ft | 429 kts | 226° |
| 2026-05-06 08:46 | -25.98325 | -46.26484 | 37126 ft | 429 kts | 226° |
| 2026-05-06 08:47 | -26.02457 | -46.31272 | 37146 ft | 429 kts | 226° |
| 2026-05-06 08:47 | -26.06563 | -46.36034 | 37148 ft | 429 kts | 226° |
| 2026-05-06 08:48 | -26.10694 | -46.40831 | 37148 ft | 429 kts | 226° |
| 2026-05-06 08:48 | -26.14824 | -46.45632 | 37131 ft | 429 kts | 226° |
| 2026-05-06 08:49 | -26.18951 | -46.50436 | 37131 ft | 429 kts | 226° |
| 2026-05-06 08:49 | -26.23053 | -46.55215 | 37147 ft | 429 kts | 226° |
| 2026-05-06 08:50 | -26.27176 | -46.60025 | 37150 ft | 429 kts | 226° |
| 2026-05-06 08:50 | -26.31299 | -46.64839 | 37146 ft | 429 kts | 226° |
| 2026-05-06 08:51 | -26.35420 | -46.69657 | 37134 ft | 429 kts | 226° |
| 2026-05-06 08:51 | -26.39515 | -46.74448 | 37131 ft | 429 kts | 226° |
| 2026-05-06 08:52 | -26.43632 | -46.79266 | 37139 ft | 429 kts | 226° |
| 2026-05-06 08:52 | -26.47720 | -46.84056 | 37134 ft | 428 kts | 226° |
| 2026-05-06 08:53 | -26.51833 | -46.88881 | 37153 ft | 428 kts | 226° |
| 2026-05-06 08:53 | -26.55942 | -46.93708 | 37147 ft | 428 kts | 226° |
| 2026-05-06 08:54 | -26.60050 | -46.98538 | 37133 ft | 429 kts | 226° |
| 2026-05-06 08:54 | -26.64132 | -47.03402 | 37129 ft | 429 kts | 227° |
| 2026-05-06 08:55 | -26.68202 | -47.08286 | 37126 ft | 429 kts | 227° |
| 2026-05-06 08:55 | -26.72272 | -47.13164 | 37147 ft | 429 kts | 227° |
| 2026-05-06 08:56 | -26.76335 | -47.17996 | 37149 ft | 429 kts | 227° |
| 2026-05-06 08:56 | -26.80432 | -47.22855 | 37149 ft | 429 kts | 227° |
| 2026-05-06 08:57 | -26.84541 | -47.27743 | 37146 ft | 429 kts | 227° |
| 2026-05-06 08:57 | -26.88634 | -47.32617 | 37121 ft | 429 kts | 227° |
| 2026-05-06 08:58 | -26.92697 | -47.37476 | 37126 ft | 429 kts | 227° |
| 2026-05-06 08:58 | -26.96779 | -47.42373 | 37125 ft | 429 kts | 227° |
| 2026-05-06 08:59 | -27.00854 | -47.47267 | 37130 ft | 429 kts | 227° |
| 2026-05-06 08:59 | -27.04932 | -47.52169 | 37145 ft | 429 kts | 227° |
| 2026-05-06 09:00 | -27.08980 | -47.57040 | 37129 ft | 429 kts | 227° |
| 2026-05-06 09:00 | -27.13059 | -47.61954 | 37135 ft | 429 kts | 227° |
| 2026-05-06 09:01 | -27.17126 | -47.66859 | 37145 ft | 428 kts | 227° |
| 2026-05-06 09:01 | -27.21161 | -47.71731 | 37130 ft | 428 kts | 227° |
| 2026-05-06 09:02 | -27.25230 | -47.76650 | 37129 ft | 428 kts | 227° |
| 2026-05-06 09:02 | -27.29281 | -47.81554 | 37138 ft | 428 kts | 227° |
| 2026-05-06 09:03 | -27.33308 | -47.86434 | 37127 ft | 428 kts | 227° |
| 2026-05-06 09:03 | -27.37355 | -47.91342 | 37127 ft | 427 kts | 227° |
| 2026-05-06 09:04 | -27.41396 | -47.96263 | 37125 ft | 427 kts | 227° |
| 2026-05-06 09:04 | -27.45394 | -48.01167 | 37122 ft | 427 kts | 227° |
| 2026-05-06 09:05 | -27.49413 | -48.06104 | 37126 ft | 427 kts | 227° |
| 2026-05-06 09:05 | -27.53431 | -48.11042 | 37120 ft | 427 kts | 227° |
| 2026-05-06 09:06 | -27.57448 | -48.15983 | 37119 ft | 427 kts | 227° |
| 2026-05-06 09:06 | -27.61460 | -48.20924 | 37119 ft | 427 kts | 227° |
| 2026-05-06 09:07 | -27.65475 | -48.25875 | 37130 ft | 427 kts | 227° |
| 2026-05-06 09:07 | -27.69457 | -48.30790 | 37126 ft | 427 kts | 227° |
| 2026-05-06 09:08 | -27.73467 | -48.35741 | 37129 ft | 427 kts | 227° |
| 2026-05-06 09:08 | -27.77472 | -48.40691 | 37126 ft | 427 kts | 227° |
| 2026-05-06 09:09 | -27.81475 | -48.45645 | 37127 ft | 427 kts | 227° |
| 2026-05-06 09:09 | -27.85478 | -48.50606 | 37128 ft | 426 kts | 227° |
| 2026-05-06 09:10 | -27.89449 | -48.55534 | 37128 ft | 426 kts | 228° |
| 2026-05-06 09:10 | -27.93446 | -48.60499 | 37124 ft | 426 kts | 228° |
| 2026-05-06 09:11 | -27.97445 | -48.65473 | 37129 ft | 426 kts | 228° |
| 2026-05-06 09:11 | -28.01439 | -48.70446 | 37125 ft | 426 kts | 228° |
| 2026-05-06 09:12 | -28.05397 | -48.75381 | 37129 ft | 426 kts | 228° |
| 2026-05-06 09:12 | -28.09386 | -48.80362 | 37132 ft | 426 kts | 228° |
| 2026-05-06 09:13 | -28.13364 | -48.85333 | 37129 ft | 426 kts | 228° |
| 2026-05-06 09:13 | -28.17337 | -48.90304 | 37135 ft | 426 kts | 228° |
| 2026-05-06 09:14 | -28.21299 | -48.95266 | 37135 ft | 426 kts | 228° |
| 2026-05-06 09:14 | -28.25262 | -49.00270 | 37132 ft | 426 kts | 228° |
| 2026-05-06 09:15 | -28.29214 | -49.05271 | 37134 ft | 425 kts | 228° |
| 2026-05-06 09:15 | -28.33215 | -49.10209 | 37122 ft | 425 kts | 227° |
| 2026-05-06 09:16 | -28.37220 | -49.15143 | 37129 ft | 424 kts | 228° |
| 2026-05-06 09:16 | -28.41180 | -49.20046 | 37130 ft | 424 kts | 228° |
| 2026-05-06 09:17 | -28.45163 | -49.24985 | 37127 ft | 423 kts | 228° |
| 2026-05-06 09:17 | -28.49133 | -49.29925 | 37135 ft | 423 kts | 228° |
| 2026-05-06 09:18 | -28.53095 | -49.34875 | 37127 ft | 423 kts | 228° |
| 2026-05-06 09:18 | -28.57046 | -49.39818 | 37135 ft | 422 kts | 228° |
| 2026-05-06 09:19 | -28.60999 | -49.44768 | 37130 ft | 422 kts | 228° |
| 2026-05-06 09:19 | -28.64946 | -49.49717 | 37140 ft | 422 kts | 228° |
| 2026-05-06 09:20 | -28.68896 | -49.54676 | 37132 ft | 422 kts | 229° |
| 2026-05-06 09:20 | -28.72821 | -49.59609 | 37134 ft | 422 kts | 229° |
| 2026-05-06 09:21 | -28.76103 | -49.63738 | 37132 ft | 422 kts | 229° |
| 2026-05-06 09:21 | -28.80687 | -49.69513 | 37136 ft | 422 kts | 229° |
| 2026-05-06 09:22 | -28.83963 | -49.73645 | 37142 ft | 421 kts | 229° |
| 2026-05-06 09:22 | -28.87898 | -49.78614 | 37139 ft | 421 kts | 229° |
| 2026-05-06 09:23 | -28.91849 | -49.83556 | 37141 ft | 421 kts | 228° |
| 2026-05-06 09:23 | -28.95900 | -49.88380 | 37147 ft | 420 kts | 227° |
| 2026-05-06 09:24 | -28.99934 | -49.93153 | 37154 ft | 419 kts | 227° |
| 2026-05-06 09:24 | -29.03973 | -49.97963 | 37162 ft | 418 kts | 227° |
| 2026-05-06 09:25 | -29.07995 | -50.02778 | 37160 ft | 418 kts | 227° |
| 2026-05-06 09:25 | -29.12015 | -50.07599 | 37168 ft | 418 kts | 228° |
| 2026-05-06 09:26 | -29.16005 | -50.12390 | 37168 ft | 418 kts | 228° |
| 2026-05-06 09:26 | -29.20014 | -50.17209 | 37164 ft | 417 kts | 228° |
| 2026-05-06 09:27 | -29.24025 | -50.22035 | 37170 ft | 417 kts | 228° |
| 2026-05-06 09:27 | -29.28006 | -50.26832 | 37169 ft | 417 kts | 228° |
| 2026-05-06 09:28 | -29.32008 | -50.31660 | 37169 ft | 417 kts | 228° |
| 2026-05-06 09:28 | -29.36001 | -50.36483 | 37155 ft | 417 kts | 228° |
| 2026-05-06 09:29 | -29.39997 | -50.41316 | 37165 ft | 417 kts | 228° |
| 2026-05-06 09:29 | -29.43961 | -50.46117 | 37169 ft | 417 kts | 228° |
| 2026-05-06 09:30 | -29.47950 | -50.50953 | 37161 ft | 417 kts | 228° |
| 2026-05-06 09:30 | -29.51945 | -50.55801 | 37127 ft | 417 kts | 228° |
| 2026-05-06 09:31 | -29.55881 | -50.60690 | 37118 ft | 417 kts | 229° |
| 2026-05-06 09:31 | -29.59766 | -50.65641 | 37111 ft | 417 kts | 229° |
| 2026-05-06 09:32 | -29.63635 | -50.70571 | 37126 ft | 417 kts | 229° |
| 2026-05-06 09:32 | -29.67530 | -50.75523 | 37112 ft | 417 kts | 229° |
| 2026-05-06 09:33 | -29.71424 | -50.80477 | 37110 ft | 417 kts | 229° |
| 2026-05-06 09:33 | -29.75321 | -50.85438 | 37080 ft | 417 kts | 229° |
| 2026-05-06 09:34 | -29.79191 | -50.90373 | 37098 ft | 417 kts | 229° |
| 2026-05-06 09:34 | -29.83092 | -50.95352 | 37087 ft | 418 kts | 230° |
| 2026-05-06 09:35 | -29.86985 | -51.00329 | 37086 ft | 418 kts | 230° |
| 2026-05-06 09:35 | -29.90876 | -51.05309 | 37069 ft | 418 kts | 230° |
| 2026-05-06 09:36 | -29.94752 | -51.10275 | 37086 ft | 418 kts | 230° |
| 2026-05-06 09:36 | -29.98334 | -51.15532 | 37063 ft | 417 kts | 238° |
| 2026-05-06 09:37 | -30.01225 | -51.21349 | 37048 ft | 417 kts | 243° |
| 2026-05-06 09:37 | -30.03424 | -51.27515 | 37042 ft | 418 kts | 247° |
| 2026-05-06 09:38 | -30.05510 | -51.33781 | 37068 ft | 418 kts | 248° |
| 2026-05-06 09:38 | -30.07607 | -51.40043 | 37068 ft | 418 kts | 247° |
| 2026-05-06 09:39 | -30.09703 | -51.46258 | 37059 ft | 418 kts | 247° |
| 2026-05-06 09:39 | -30.11816 | -51.52513 | 37063 ft | 418 kts | 247° |
| 2026-05-06 09:40 | -30.13929 | -51.58774 | 37063 ft | 418 kts | 247° |
| 2026-05-06 09:40 | -30.17074 | -51.68121 | 37074 ft | 417 kts | 247° |
| 2026-05-06 09:41 | -30.19170 | -51.74368 | 37067 ft | 416 kts | 247° |
| 2026-05-06 09:41 | -30.21263 | -51.80612 | 37094 ft | 416 kts | 247° |
| 2026-05-06 09:42 | -30.23350 | -51.86852 | 37067 ft | 415 kts | 248° |
| 2026-05-06 09:42 | -30.25429 | -51.93081 | 37067 ft | 415 kts | 248° |
| 2026-05-06 09:43 | -30.27507 | -51.99313 | 37084 ft | 414 kts | 247° |
| 2026-05-06 09:43 | -30.29565 | -52.05482 | 37085 ft | 413 kts | 247° |
| 2026-05-06 09:44 | -30.31638 | -52.11685 | 37076 ft | 412 kts | 247° |
| 2026-05-06 09:44 | -30.33702 | -52.17874 | 37080 ft | 412 kts | 247° |
| 2026-05-06 09:45 | -30.35767 | -52.24081 | 37080 ft | 412 kts | 247° |
| 2026-05-06 09:45 | -30.37821 | -52.30268 | 37065 ft | 412 kts | 247° |
| 2026-05-06 09:46 | -30.39867 | -52.36460 | 37072 ft | 411 kts | 247° |
| 2026-05-06 09:46 | -30.41896 | -52.42616 | 37074 ft | 411 kts | 247° |
| 2026-05-06 09:47 | -30.43935 | -52.48813 | 37072 ft | 410 kts | 247° |
| 2026-05-06 09:47 | -30.45970 | -52.55011 | 37074 ft | 411 kts | 247° |
| 2026-05-06 09:48 | -30.47993 | -52.61180 | 37071 ft | 411 kts | 247° |
| 2026-05-06 09:48 | -30.50024 | -52.67384 | 37069 ft | 410 kts | 247° |
| 2026-05-06 09:49 | -30.52049 | -52.73535 | 37061 ft | 410 kts | 247° |
| 2026-05-06 09:49 | -30.54077 | -52.79697 | 37065 ft | 409 kts | 247° |
| 2026-05-06 09:50 | -30.56105 | -52.85875 | 37062 ft | 408 kts | 247° |
| 2026-05-06 09:50 | -30.58121 | -52.92030 | 37065 ft | 407 kts | 247° |
| 2026-05-06 09:51 | -30.60115 | -52.98132 | 37061 ft | 406 kts | 247° |
| 2026-05-06 09:51 | -30.62120 | -53.04273 | 37060 ft | 406 kts | 247° |
| 2026-05-06 09:52 | -30.64118 | -53.10404 | 37055 ft | 405 kts | 247° |
| 2026-05-06 09:52 | -30.66090 | -53.16522 | 37056 ft | 405 kts | 248° |
| 2026-05-06 09:53 | -30.68038 | -53.22656 | 37060 ft | 405 kts | 248° |
| 2026-05-06 09:53 | -30.69979 | -53.28774 | 37059 ft | 405 kts | 248° |
| 2026-05-06 09:54 | -30.71932 | -53.34926 | 37058 ft | 406 kts | 248° |
| 2026-05-06 09:54 | -30.73910 | -53.41090 | 37056 ft | 406 kts | 247° |
| 2026-05-06 09:55 | -30.75955 | -53.47164 | 37055 ft | 406 kts | 247° |
| 2026-05-06 09:55 | -30.78021 | -53.53278 | 37063 ft | 406 kts | 247° |
| 2026-05-06 09:56 | -30.80076 | -53.59402 | 37055 ft | 406 kts | 247° |
| 2026-05-06 09:56 | -30.82125 | -53.65534 | 37066 ft | 406 kts | 247° |
| 2026-05-06 09:57 | -30.84157 | -53.71634 | 37053 ft | 406 kts | 247° |
| 2026-05-06 09:57 | -30.86196 | -53.77763 | 37064 ft | 406 kts | 248° |
| 2026-05-06 09:58 | -30.88235 | -53.83904 | 37060 ft | 406 kts | 248° |
| 2026-05-06 09:58 | -30.90267 | -53.90036 | 37060 ft | 405 kts | 248° |
| 2026-05-06 09:59 | -30.92280 | -53.96123 | 37062 ft | 405 kts | 248° |
| 2026-05-06 09:59 | -30.94307 | -54.02262 | 37052 ft | 405 kts | 248° |
| 2026-05-06 10:00 | -30.96314 | -54.08349 | 37055 ft | 404 kts | 248° |
| 2026-05-06 10:00 | -30.98991 | -54.14074 | 37065 ft | 403 kts | 237° |
| 2026-05-06 10:01 | -31.02406 | -54.19265 | 37034 ft | 405 kts | 229° |
| 2026-05-06 10:01 | -31.06523 | -54.23775 | 37045 ft | 406 kts | 226° |
| 2026-05-06 10:02 | -31.10706 | -54.28204 | 37044 ft | 406 kts | 226° |
| 2026-05-06 10:02 | -31.14843 | -54.32631 | 37046 ft | 406 kts | 227° |
| 2026-05-06 10:03 | -31.18991 | -54.37108 | 37044 ft | 405 kts | 227° |
| 2026-05-06 10:03 | -31.23137 | -54.41598 | 37045 ft | 406 kts | 227° |
| 2026-05-06 10:04 | -31.27277 | -54.46088 | 37039 ft | 406 kts | 227° |
| 2026-05-06 10:04 | -31.31424 | -54.50591 | 37039 ft | 406 kts | 227° |
| 2026-05-06 10:05 | -31.35540 | -54.55065 | 37037 ft | 407 kts | 227° |
| 2026-05-06 10:05 | -31.39687 | -54.59579 | 37038 ft | 407 kts | 227° |
| 2026-05-06 10:06 | -31.43836 | -54.64100 | 37033 ft | 407 kts | 228° |
| 2026-05-06 10:06 | -31.48009 | -54.68607 | 37033 ft | 408 kts | 227° |
| 2026-05-06 10:07 | -31.52205 | -54.73106 | 37034 ft | 409 kts | 227° |
| 2026-05-06 10:07 | -31.56381 | -54.77594 | 37038 ft | 410 kts | 227° |
| 2026-05-06 10:08 | -31.60590 | -54.82128 | 37029 ft | 410 kts | 227° |
| 2026-05-06 10:08 | -31.64797 | -54.86667 | 37029 ft | 411 kts | 228° |
| 2026-05-06 10:09 | -31.68297 | -54.90449 | 37028 ft | 411 kts | 228° |
| 2026-05-06 10:09 | -31.73190 | -54.95743 | 37028 ft | 412 kts | 228° |
| 2026-05-06 10:10 | -31.76707 | -54.99554 | 37021 ft | 412 kts | 228° |
| 2026-05-06 10:10 | -31.81617 | -55.04879 | 37023 ft | 412 kts | 228° |
| 2026-05-06 10:11 | -31.85148 | -55.08715 | 37024 ft | 413 kts | 228° |
| 2026-05-06 10:11 | -31.89345 | -55.13278 | 37025 ft | 413 kts | 228° |
| 2026-05-06 10:12 | -31.93570 | -55.17879 | 37020 ft | 413 kts | 228° |
| 2026-05-06 10:12 | -31.97799 | -55.22491 | 37021 ft | 414 kts | 228° |
| 2026-05-06 10:13 | -32.02009 | -55.27088 | 37019 ft | 414 kts | 228° |
| 2026-05-06 10:13 | -32.06234 | -55.31706 | 37016 ft | 414 kts | 228° |
| 2026-05-06 10:14 | -32.10470 | -55.36343 | 37015 ft | 415 kts | 228° |
| 2026-05-06 10:14 | -32.14702 | -55.40982 | 37019 ft | 415 kts | 228° |
| 2026-05-06 10:15 | -32.18929 | -55.45621 | 37016 ft | 415 kts | 229° |
| 2026-05-06 10:15 | -32.23135 | -55.50243 | 37017 ft | 415 kts | 229° |
| 2026-05-06 10:16 | -32.27371 | -55.54905 | 37012 ft | 416 kts | 229° |
| 2026-05-06 10:16 | -32.31606 | -55.59572 | 37018 ft | 416 kts | 229° |
| 2026-05-06 10:17 | -32.35839 | -55.64242 | 36996 ft | 417 kts | 229° |
| 2026-05-06 10:17 | -32.40054 | -55.68900 | 37002 ft | 417 kts | 229° |
| 2026-05-06 10:18 | -32.44301 | -55.73599 | 37005 ft | 418 kts | 229° |
| 2026-05-06 10:18 | -32.48557 | -55.78314 | 37002 ft | 418 kts | 229° |
| 2026-05-06 10:19 | -32.52812 | -55.83035 | 37012 ft | 419 kts | 229° |
| 2026-05-06 10:19 | -32.57067 | -55.87762 | 37015 ft | 419 kts | 229° |
| 2026-05-06 10:20 | -32.61299 | -55.92470 | 37006 ft | 420 kts | 229° |
| 2026-05-06 10:20 | -32.65560 | -55.97216 | 37006 ft | 420 kts | 229° |
| 2026-05-06 10:21 | -32.69823 | -56.01972 | 36997 ft | 420 kts | 229° |
| 2026-05-06 10:21 | -32.74085 | -56.06733 | 37005 ft | 420 kts | 229° |
| 2026-05-06 10:22 | -32.78346 | -56.11499 | 37001 ft | 420 kts | 229° |
| 2026-05-06 10:22 | -32.82580 | -56.16242 | 37000 ft | 421 kts | 229° |
| 2026-05-06 10:23 | -32.86844 | -56.21026 | 36996 ft | 421 kts | 229° |
| 2026-05-06 10:23 | -32.91104 | -56.25811 | 36996 ft | 421 kts | 229° |
| 2026-05-06 10:24 | -32.95364 | -56.30603 | 36995 ft | 421 kts | 229° |
| 2026-05-06 10:24 | -32.99596 | -56.35373 | 36988 ft | 421 kts | 229° |
| 2026-05-06 10:25 | -33.03838 | -56.40183 | 36987 ft | 421 kts | 229° |
| 2026-05-06 10:25 | -33.08085 | -56.45010 | 36993 ft | 421 kts | 229° |
| 2026-05-06 10:26 | -33.12333 | -56.49842 | 36993 ft | 422 kts | 229° |
| 2026-05-06 10:26 | -33.16581 | -56.54679 | 36975 ft | 422 kts | 229° |
| 2026-05-06 10:27 | -33.20837 | -56.59529 | 36983 ft | 423 kts | 229° |
| 2026-05-06 10:27 | -33.25088 | -56.64380 | 36981 ft | 423 kts | 229° |
| 2026-05-06 10:28 | -33.29341 | -56.69240 | 36989 ft | 423 kts | 229° |
| 2026-05-06 10:28 | -33.33576 | -56.74085 | 36991 ft | 424 kts | 229° |
| 2026-05-06 10:29 | -33.37835 | -56.78967 | 36987 ft | 424 kts | 229° |
| 2026-05-06 10:29 | -33.42096 | -56.83857 | 36978 ft | 424 kts | 229° |
| 2026-05-06 10:30 | -33.46324 | -56.88717 | 36980 ft | 424 kts | 229° |
| 2026-05-06 10:30 | -33.50584 | -56.93620 | 36978 ft | 423 kts | 230° |
| 2026-05-06 10:31 | -33.54831 | -56.98516 | 36979 ft | 423 kts | 230° |
| 2026-05-06 10:31 | -33.59052 | -57.03388 | 36976 ft | 423 kts | 230° |
| 2026-05-06 10:32 | -33.63297 | -57.08296 | 36890 ft | 424 kts | 230° |
| 2026-05-06 10:32 | -33.65461 | -57.10806 | 36060 ft | 434 kts | 230° |
| 2026-05-06 10:32 | -33.67605 | -57.13290 | 35322 ft | 434 kts | 230° |
| 2026-05-06 10:33 | -33.69786 | -57.15816 | 34509 ft | 435 kts | 229° |
| 2026-05-06 10:33 | -33.71967 | -57.18345 | 33606 ft | 437 kts | 229° |
| 2026-05-06 10:33 | -33.74160 | -57.20891 | 32648 ft | 439 kts | 229° |
| 2026-05-06 10:33 | -33.76370 | -57.23458 | 31709 ft | 441 kts | 229° |
| 2026-05-06 10:34 | -33.78585 | -57.26032 | 30885 ft | 442 kts | 229° |
| 2026-05-06 10:34 | -33.80786 | -57.28591 | 30212 ft | 439 kts | 229° |
| 2026-05-06 10:34 | -33.82950 | -57.31109 | 29465 ft | 437 kts | 229° |
| 2026-05-06 10:34 | -33.85128 | -57.33646 | 28744 ft | 434 kts | 229° |
| 2026-05-06 10:35 | -33.87290 | -57.36166 | 28077 ft | 431 kts | 229° |
| 2026-05-06 10:35 | -33.89435 | -57.38668 | 27428 ft | 427 kts | 229° |
| 2026-05-06 10:35 | -33.91568 | -57.41156 | 26799 ft | 424 kts | 229° |
| 2026-05-06 10:35 | -33.93681 | -57.43623 | 26187 ft | 421 kts | 229° |
| 2026-05-06 10:36 | -33.95762 | -57.46054 | 25568 ft | 419 kts | 229° |
| 2026-05-06 10:36 | -33.97852 | -57.48499 | 24961 ft | 419 kts | 229° |
| 2026-05-06 10:36 | -34.00023 | -57.51054 | 24346 ft | 455 kts | 229° |
| 2026-05-06 10:36 | -34.02361 | -57.53815 | 23901 ft | 482 kts | 229° |
| 2026-05-06 10:37 | -34.04742 | -57.56606 | 24049 ft | 468 kts | 228° |
| 2026-05-06 10:37 | -34.07022 | -57.59258 | 24151 ft | 445 kts | 229° |
| 2026-05-06 10:37 | -34.09224 | -57.61826 | 23823 ft | 433 kts | 229° |
| 2026-05-06 10:37 | -34.11362 | -57.64331 | 23461 ft | 423 kts | 229° |
| 2026-05-06 10:38 | -34.13445 | -57.66779 | 23028 ft | 414 kts | 229° |
| 2026-05-06 10:38 | -34.15491 | -57.69190 | 22523 ft | 407 kts | 229° |
| 2026-05-06 10:38 | -34.17485 | -57.71543 | 21930 ft | 404 kts | 229° |
| 2026-05-06 10:38 | -34.19487 | -57.73909 | 21301 ft | 402 kts | 229° |
| 2026-05-06 10:39 | -34.21485 | -57.76269 | 20630 ft | 401 kts | 229° |
| 2026-05-06 10:39 | -34.23489 | -57.78641 | 19663 ft | 407 kts | 229° |
| 2026-05-06 10:39 | -34.25527 | -57.81053 | 18696 ft | 413 kts | 228° |
| 2026-05-06 10:39 | -34.27594 | -57.83499 | 17681 ft | 418 kts | 228° |
| 2026-05-06 10:40 | -34.29695 | -57.85986 | 16637 ft | 423 kts | 228° |
| 2026-05-06 10:40 | -34.31760 | -57.88424 | 15808 ft | 400 kts | 227° |
| 2026-05-06 10:40 | -34.33697 | -57.90710 | 14849 ft | 380 kts | 227° |
| 2026-05-06 10:40 | -34.35551 | -57.92907 | 13865 ft | 369 kts | 227° |
| 2026-05-06 10:41 | -34.37373 | -57.95072 | 13220 ft | 364 kts | 227° |
| 2026-05-06 10:41 | -34.39189 | -57.97230 | 12712 ft | 365 kts | 227° |
| 2026-05-06 10:41 | -34.40960 | -57.99427 | 12211 ft | 362 kts | 231° |
| 2026-05-06 10:41 | -34.42489 | -58.01780 | 11695 ft | 359 kts | 238° |
| 2026-05-06 10:42 | -34.43815 | -58.04332 | 11203 ft | 356 kts | 241° |
| 2026-05-06 10:42 | -34.45101 | -58.06875 | 10944 ft | 348 kts | 241° |
| 2026-05-06 10:42 | -34.46349 | -58.09341 | 10789 ft | 338 kts | 241° |
| 2026-05-06 10:42 | -34.47562 | -58.11733 | 10630 ft | 328 kts | 241° |
| 2026-05-06 10:43 | -34.48737 | -58.14051 | 10486 ft | 318 kts | 241° |
| 2026-05-06 10:43 | -34.49880 | -58.16302 | 10349 ft | 308 kts | 241° |
| 2026-05-06 10:43 | -34.50989 | -58.18485 | 10220 ft | 299 kts | 241° |
| 2026-05-06 10:44 | -34.53094 | -58.22629 | 9970 ft | 281 kts | 241° |
| 2026-05-06 10:44 | -34.54109 | -58.24630 | 9736 ft | 277 kts | 241° |
| 2026-05-06 10:44 | -34.55121 | -58.26626 | 9410 ft | 276 kts | 242° |
| 2026-05-06 10:44 | -34.56127 | -58.28611 | 9098 ft | 275 kts | 241° |
| 2026-05-06 10:45 | -34.57127 | -58.30586 | 8786 ft | 274 kts | 241° |
| 2026-05-06 10:45 | -34.58120 | -58.32548 | 8460 ft | 273 kts | 241° |
| 2026-05-06 10:45 | -34.59103 | -58.34490 | 8147 ft | 272 kts | 241° |
| 2026-05-06 10:45 | -34.60095 | -58.36449 | 7820 ft | 272 kts | 241° |
| 2026-05-06 10:46 | -34.61083 | -58.38404 | 7516 ft | 271 kts | 241° |
| 2026-05-06 10:46 | -34.62071 | -58.40357 | 7194 ft | 271 kts | 241° |
| 2026-05-06 10:46 | -34.63056 | -58.42308 | 6887 ft | 271 kts | 241° |
| 2026-05-06 10:46 | -34.64042 | -58.44261 | 6561 ft | 271 kts | 241° |
| 2026-05-06 10:47 | -34.65028 | -58.46213 | 6255 ft | 270 kts | 241° |
| 2026-05-06 10:47 | -34.66011 | -58.48162 | 5918 ft | 270 kts | 241° |
| 2026-05-06 10:47 | -34.66993 | -58.50110 | 5590 ft | 270 kts | 241° |
| 2026-05-06 10:47 | -34.67972 | -58.52053 | 5267 ft | 270 kts | 241° |
| 2026-05-06 10:48 | -34.68939 | -58.53972 | 4966 ft | 269 kts | 241° |
| 2026-05-06 10:48 | -34.69928 | -58.55937 | 4639 ft | 269 kts | 241° |
| 2026-05-06 10:48 | -34.70891 | -58.57853 | 4325 ft | 268 kts | 241° |
| 2026-05-06 10:48 | -34.71865 | -58.59788 | 4010 ft | 268 kts | 241° |
| 2026-05-06 10:49 | -34.72823 | -58.61691 | 3881 ft | 260 kts | 241° |
| 2026-05-06 10:49 | -34.73753 | -58.63541 | 3737 ft | 253 kts | 241° |
| 2026-05-06 10:49 | -34.74664 | -58.65356 | 3484 ft | 250 kts | 241° |
| 2026-05-06 10:49 | -34.75556 | -58.67134 | 3267 ft | 247 kts | 241° |
| 2026-05-06 10:50 | -34.76631 | -58.68736 | 2945 ft | 246 kts | 216° |
| 2026-05-06 10:50 | -34.78204 | -58.69434 | 2731 ft | 241 kts | 182° |
| 2026-05-06 10:50 | -34.79749 | -58.68984 | 2683 ft | 219 kts | 144° |
| 2026-05-06 10:50 | -34.80665 | -58.67712 | 2572 ft | 188 kts | 106° |
| 2026-05-06 10:51 | -34.80713 | -58.66290 | 2352 ft | 157 kts | 71° |
| 2026-05-06 10:51 | -34.80525 | -58.65019 | 1955 ft | 152 kts | 83° |
| 2026-05-06 10:51 | -34.80571 | -58.63723 | 1459 ft | 155 kts | 90° |
| 2026-05-06 10:51 | -34.80687 | -58.62452 | 1316 ft | 150 kts | 92° |
| 2026-05-06 10:52 | -34.80873 | -58.61183 | 1168 ft | 158 kts | 104° |
| 2026-05-06 10:52 | -34.81237 | -58.59934 | 866 ft | 151 kts | 97° |
| 2026-05-06 10:52 | -34.81392 | -58.58703 | 509 ft | 143 kts | 96° |
| 2026-05-06 10:52 | -34.81520 | -58.57564 | 477 ft | 147 kts | 96° |
| 2026-05-06 10:53 | -34.81734 | -58.56279 | 246 ft | 153 kts | 101° |
| 2026-05-06 10:53 | -34.81953 | -58.55069 | 89 ft | 139 kts | 101° |
| 2026-05-06 10:53 | -34.82110 | -58.54207 | 91 ft | 41 kts | 102° |
| 2026-05-06 10:53 | -34.82120 | -58.53930 | 90 ft | 31 kts | 68° |
| 2026-05-06 10:54 | -34.81985 | -58.53729 | 86 ft | 30 kts | 45° |
| 2026-05-06 10:54 | -34.81814 | -58.53682 | 83 ft | 27 kts | 339° |
| 2026-05-06 10:54 | -34.81710 | -58.53812 | 83 ft | 17 kts | 285° |
| 2026-05-06 10:54 | -34.81648 | -58.53926 | 83 ft | 12 kts | 311° |
| 2026-05-06 10:55 | -34.81612 | -58.53970 | 84 ft | 0 kts | 317° |